Skip Navigation Links weather.gov 
NOAA logo-Select to go to the NOAA homepage NDBC Title GraphicClick to go to NDBC home page   Select to go to the NWS homepage
Home About Us Contact Us
 
 
    
    Station List

 Data Access
    Mobile Access
    Classic Maps
         Recent
         DART®
    Obs Search
    Ship Obs Report
    BuoyCAMs
    TAO
    DODS
    OceanSITES
    HF Radar
    OSMC
    Dial-A-Buoy
    RSS Feeds Image indicating link to RSS feed access page
    Web Widget
    Email Access
    Web Data Guide
    Maintenance Schedule
    Station Status Report

 Program Info
    TAO
    DART®
    IOOS®

 Publications
    NDBC PEA
    NDBC FONSI
    NDBC DQC Handbook

 FAQ
 Visitor Information
 
USA.gov is the U.S. government's official web portal to all federal, state and local government web resources and services.

Station OMHC1 - 9414769 - Oakland Middle Harbor Met, CA Image indicating link to RSS feed of recent meteorological observations for station OMHC1

Owned and maintained by NOAA's National Ocean Service
C-MAN Station
37.801 N 122.330 W (37°48'2" N 122°19'47" W)

Anemometer height: 6.7 m above site elevation

Search And Rescue (SAR) Data

Meteorological Observations from Nearby Stations and Ships Image indicating link to RSS feed of recent meteorological observations near station OMHC1

Regional HF Radar Surface Current Observations

Large icon indicates selected station.
yellow diamond Stations with recent data
red diamond Stations with no data in last 8 hours
     (24 hours for tsunami stations)


Conditions at OMHC1 as of
(9:00 pm PST on 02/15/2019)
0500 GMT on 02/16/2019:
     

Click on the graph icon in the table below to see a time series plot of the last five days of that observation.

5-day plot - Wind Direction Wind Direction (WDIR): SSW ( 210 deg true )
5-day plot - Wind Speed Wind Speed (WSPD): 8 kts
5-day plot - Wind Gust Wind Gust (GST): 9 kts
5-day plot - Wind Speed at 10 Meters Wind Speed at 10 meters (WSPD10M): 8 kts
5-day plot - Wind Speed at 10 Meters Wind Speed at 20 meters (WSPD20M): 10 kts
5-day plot - Wind Speed, Wind Gust and Atmospheric Pressure Combined plot of Wind Speed, Gust, and Air Pressure
NOS Water Level Observation Network Water Level
Previous observations
5-day plot - Wind Direction 5-day plot - Wind Speed 5-day plot - Wind Gust 5-day plot - Wave Height 5-day plot - Dominant Wave Period 5-day plot - Average Period 5-day plot - Mean Wave Direction 5-day plot - Atmospheric Pressure 5-day plot - Pressure Tendency 5-day plot - Air Temperature 5-day plot - Water Temperature 5-day plot - Dew Point 5-day plot - Salinity 5-day plot - Visibility 5-day plot - Tide (above MLLW)
MM DD TIME
(PST)
WDIR WSPD
kts
GST
kts
WVHT
ft
DPD
sec
APD
sec
MWD PRES
in
PTDY
in
ATMP
°F
WTMP
°F
DEWP
°F
SAL
psu
VIS
nmi
TIDE
ft
0215 8:54 pmSSW 7 8------------
0215 8:48 pmSSW 7 9------------
0215 8:42 pmSSW 7 10------------
0215 8:36 pm SW 9 12------------
0215 8:30 pmSSW 9 12------------
0215 8:24 pm S 5 6------------
0215 8:18 pmSSE 5 5------------
0215 8:12 pm S 4 6------------
0215 8:06 pm S 5 7------------
0215 8:00 pmSSW 6 8------------
0215 7:54 pm SW 6 9------------
0215 7:48 pm SW 8 11------------
0215 7:42 pmWSW 10 11------------
0215 7:36 pm W 5 7------------
0215 7:30 pmWNW 7 14------------
0215 7:24 pm W 15 25------------
0215 7:18 pmWSW 12 17------------
0215 7:12 pmSSW 6 8------------
0215 7:06 pmSSW 5 5------------
0215 7:00 pmSSW 5 7------------
0215 6:54 pmSSW 6 7------------
0215 6:48 pmSSW 5 7------------
0215 6:42 pmWSW 4 6------------
0215 6:36 pmWSW 5 8------------
0215 6:30 pmWSW 8 10------------
0215 6:24 pmWSW 8 12------------
0215 6:18 pm SW 10 12------------
0215 6:12 pm SW 9 12------------
0215 6:06 pmWSW 7 10------------
0215 6:00 pmWSW 11 15------------
0215 5:54 pmWSW 11 12------------
0215 5:48 pmWSW 7 12------------
0215 5:42 pmWSW 9 11------------
0215 5:36 pmWSW 6 11------------
0215 5:30 pm W 7 11------------
0215 5:24 pmWSW 7 10------------
0215 5:18 pmWSW 6 10------------
0215 5:12 pm SW 7 10------------
0215 5:06 pmWSW 10 12------------
0215 5:00 pmWSW 9 10------------
0215 4:54 pmWSW 8 12------------
0215 4:48 pm W 10 14------------
0215 4:42 pmWSW 15 17------------
0215 4:36 pm W 16 21------------
0215 4:30 pm W 19 23------------
0215 4:24 pm W 20 25------------
0215 4:18 pm W 23 29------------
0215 4:12 pm W 20 23------------
0215 4:06 pm W 11 15------------
0215 4:00 pm W 9 12------------
0215 3:54 pm W 8 11------------
0215 3:48 pm W 8 12------------
0215 3:42 pm W 13 18------------
0215 3:36 pm W 11 13------------
0215 3:30 pm W 8 10------------
0215 3:24 pm W 6 10------------
0215 3:18 pm W 9 12------------
0215 3:12 pmSSW 8 10------------
0215 3:06 pmSSW 6 10------------
0215 3:00 pmSSW 10 14------------
0215 2:54 pmSSW 8 10------------
0215 2:48 pmSSW 9 11------------
0215 2:42 pmSSW 9 11------------
0215 2:36 pmSSW 10 11------------
0215 2:30 pm SW 8 14------------
0215 2:24 pmWSW 13 18------------
0215 2:18 pm W 13 30------------
0215 2:12 pm W 27 30------------
0215 2:06 pmWSW 22 28------------
0215 2:00 pm W 18 22------------
0215 1:54 pmWSW 18 22------------
0215 1:48 pmWSW 13 17------------
0215 1:42 pmWSW 13 19------------
0215 1:36 pm W 17 19------------
0215 1:30 pm W 12 19------------
0215 1:24 pm W 12 16------------
0215 1:18 pmWSW 10 13------------
0215 1:12 pm SW 12 20------------
0215 1:06 pmWSW 10 13------------
0215 1:00 pm SW 11 13------------
021512:54 pm SW 12 17------------
021512:48 pmWSW 15 21------------
021512:42 pmWSW 20 26------------
021512:36 pmWSW 21 30------------
021512:30 pm W 23 29------------
021512:24 pm SW 14 25------------
021512:18 pm SW 16 23------------
021512:12 pm SW 17 21------------
021512:06 pmWSW 21 26------------
021512:00 pm SW 18 23------------
021511:54 am SW 16 22------------
021511:48 am SW 18 24------------
021511:42 am SW 15 18------------
021511:36 am SW 14 21------------
021511:30 am SW 17 24------------
021511:24 am SW 17 22------------
021511:18 am SW 16 26------------
021511:12 am SW 21 25------------
021511:06 am SW 19 26------------
021511:00 am SW 19 26------------
021510:54 am SW 21 26------------
021510:48 am SW 16 20------------
021510:42 am SW 23 29------------
021510:36 am SW 20 23------------
021510:30 am SW 20 24------------
021510:24 amWSW 18 22------------
021510:18 am SW 17 24------------
021510:12 amWSW 16 18------------
021510:06 am SW 15 19------------
021510:00 am SW 17 20------------
0215 9:54 am SW 16 21------------
0215 9:48 am SW 17 22------------
0215 9:42 amWSW 18 23------------
0215 9:36 am SW 19 22------------
0215 9:30 am SW 17 20------------
0215 9:24 am SW 16 20------------
0215 9:18 am SW 13 17------------
0215 9:12 am SW 14 17------------
0215 9:06 amSSW 12 19------------
0215 9:00 amSSW 12 18------------
0215 8:54 am SW 15 18------------
0215 8:48 amSSW 10 13------------
0215 8:42 amSSW 10 15------------
0215 8:36 amSSW 13 16------------
0215 8:30 amSSW 13 16------------
0215 8:24 am S 10 16------------
0215 8:18 am S 10 14------------
0215 8:12 am S 10 13------------
0215 8:06 am S 10 13------------
0215 8:00 am S 10 13------------
0215 7:54 am S 7 9------------
0215 7:48 am S 8 12------------
0215 7:42 amSSW 9 11------------
0215 7:36 amSSW 11 15------------
0215 7:30 amSSW 12 14------------
0215 7:24 amSSW 12 15------------
0215 7:18 amSSW 10 13------------
0215 7:12 amSSW 12 14------------
0215 7:06 am SW 12 16------------
0215 7:00 am SW 13 17------------
0215 6:54 am SW 14 18------------
0215 6:48 amSSW 16 19------------
0215 6:42 am SW 16 20------------
0215 6:36 am SW 17 19------------
0215 6:30 am SW 17 20------------
0215 6:24 amSSW 16 20------------
0215 6:18 amSSW 10 12------------
0215 6:12 amSSW 9 12------------
0215 6:06 amSSW 10 13------------
0215 6:00 amSSW 12 14------------
0215 5:54 amSSW 12 14------------
0215 5:48 amSSW 13 18------------
0215 5:42 amSSW 18 23------------
0215 5:36 am SW 19 34------------
0215 5:30 am W 11 25------------
0215 5:24 am SW 19 23------------
0215 5:18 am SW 15 18------------
0215 5:12 amWSW 16 19------------
0215 5:06 am SW 14 19------------
0215 5:00 am SW 14 18------------
0215 4:54 am SW 14 16------------
0215 4:48 amWSW 15 20------------
0215 4:42 amWSW 16 19------------
0215 4:36 am SW 16 20------------
0215 4:30 am SW 15 18------------
0215 4:24 am SW 13 16------------
0215 4:18 am SW 11 15------------
0215 4:12 am SW 12 15------------
0215 4:06 am SW 11 13------------
0215 4:00 am SW 10 15------------
0215 3:54 am SW 12 14------------
0215 3:48 am SW 12 16------------
0215 3:42 am SW 15 17------------
0215 3:36 am SW 11 16------------
0215 3:30 amWSW 11 17------------
0215 3:24 amWSW 15 21------------
0215 3:18 amWSW 19 24------------
0215 3:12 am W 17 25------------
0215 3:06 am W 22 26------------
0215 3:00 am W 19 26------------
0215 2:54 am W 21 25------------
0215 2:48 amWSW 22 26------------
0215 2:42 amWSW 18 21------------
0215 2:36 am SW 19 23------------
0215 2:30 am SW 14 20------------
0215 2:24 am SW 12 16------------
0215 2:18 am SW 5 8------------
0215 2:12 amWSW 5 8------------
0215 2:06 am SW 8 10------------
0215 2:00 am SW 5 7------------
0215 1:54 am W 6 8------------
0215 1:48 amWNW 7 10------------
0215 1:42 am W 9 11------------
0215 1:36 amWSW 9 13------------
0215 1:30 am W 11 17------------
0215 1:24 am W 14 17------------
0215 1:18 amWSW 11 14------------
0215 1:12 am SW 11 14------------
0215 1:06 am SW 13 16------------
0215 1:00 amSSW 14 18------------
021512:54 amSSW 15 20------------
021512:48 amSSW 17 21------------
021512:42 amSSW 18 21------------
021512:36 amSSW 18 22------------
021512:30 amWSW 19 25------------
021512:24 am W 12 19------------
021512:18 am W 10 14------------
021512:12 am W 12 14------------
021512:06 amWSW 7 11------------
021512:00 amSSW 8 12------------
021411:54 pmSSW 12 13------------
021411:48 pmSSW 11 14------------
021411:42 pmSSW 11 15------------
021411:36 pmSSW 12 13------------
021411:30 pmSSW 10 13------------
021411:24 pmSSW 11 14------------
021411:18 pm SW 12 16------------
021411:12 pm SW 14 17------------
021411:06 pm SW 13 17------------
021411:00 pm SW 14 18------------
021410:54 pm SW 14 19------------
021410:48 pm SW 14 19------------
021410:42 pmWSW 13 19------------
021410:36 pmWSW 11 17------------
021410:30 pmWSW 14 21------------
021410:24 pmWSW 17 25------------
021410:18 pm SW 18 22------------
021410:12 pmSSW 14 19------------
021410:06 pmSSW 16 20------------
021410:00 pmSSW 18 23------------
0214 9:54 pm SW 22 32------------
0214 9:48 pmWSW 29 33------------
0214 9:42 pmSSW 19 28------------
0214 9:36 pm SW 18 21------------
0214 9:30 pmSSW 16 22------------
0214 9:24 pm SW 16 20------------
0214 9:18 pm SW 17 22------------
0214 9:12 pmSSW 22 30------------
0214 9:06 pmSSW 24 30------------
0214 9:00 pmSSW 19 25------------
0214 8:54 pmSSW 21 25------------

Description of Measurements

Links which are specific to this station are listed below:

Real Time Data in tabular form for the last forty-five days.

Historical Data & Climatic Summaries for quality controlled data for the current month, previous months, and previous years.